Time;durP1;ratioP1;P1;durP2;ratioP2;P2;SDS_P1;SDS_P2;PMS_P1;PMS_P2;Temp;Humidity;BMP_temperature;BMP_pressure;BME280_temperature;BME280_humidity;BME280_pressure;Samples;Min_cycle;Max_cycle;Signal;HPM_P1;HPM_P2
2022/08/03 00:01:58;;;;;;;0.10;0.10;;;;;;;;;;6225420;22;20241;-91
2022/08/03 00:04:24;;;;;;;0.10;0.10;;;;;;;;;;6226415;22;20333;-92
2022/08/03 00:06:50;;;;;;;0.10;0.10;;;;;;;;;;6226319;22;20145;-91
2022/08/03 00:09:16;;;;;;;0.10;0.10;;;;;;;;;;6225537;22;20091;-94
2022/08/03 00:11:42;;;;;;;0.10;0.10;;;;;;;;;;6225356;22;20012;-93
2022/08/03 00:14:08;;;;;;;0.10;0.10;;;;;;;;;;6225616;22;20020;-92
2022/08/03 00:16:35;;;;;;;0.10;0.10;;;;;;;;;;6250219;22;20436;-93
2022/08/03 00:19:01;;;;;;;0.10;0.10;;;;;;;;;;6224851;22;20182;-93
2022/08/03 00:21:28;;;;;;;0.10;0.10;;;;;;;;;;6225314;22;20018;-92
2022/08/03 00:23:54;;;;;;;0.10;0.10;;;;;;;;;;6225038;22;20016;-92
2022/08/03 00:26:21;;;;;;;0.10;0.10;;;;;;;;;;6225178;22;20400;-93
2022/08/03 00:28:48;;;;;;;0.10;0.10;;;;;;;;;;6249995;22;20368;-92
2022/08/03 00:31:14;;;;;;;0.10;0.10;;;;;;;;;;6224445;22;20464;-93
2022/08/03 00:33:40;;;;;;;0.10;0.10;;;;;;;;;;6250179;22;20008;-93
2022/08/03 00:36:06;;;;;;;0.10;0.10;;;;;;;;;;6225448;22;20388;-92
2022/08/03 00:38:32;;;;;;;0.10;0.10;;;;;;;;;;6225194;22;20011;-92
2022/08/03 00:40:58;;;;;;;0.10;0.10;;;;;;;;;;6225091;22;20022;-92
2022/08/03 00:43:26;;;;;;;0.10;0.10;;;;;;;;;;6224977;22;20047;-91
2022/08/03 00:45:53;;;;;;;0.10;0.10;;;;;;;;;;6224380;22;20016;-92
2022/08/03 00:48:19;;;;;;;0.10;0.10;;;;;;;;;;6250347;22;20016;-92
2022/08/03 00:50:46;;;;;;;0.10;0.10;;;;;;;;;;6224677;22;20086;-92
2022/08/03 00:53:12;;;;;;;0.10;0.10;;;;;;;;;;6250030;22;20012;-92
2022/08/03 00:55:39;;;;;;;0.10;0.10;;;;;;;;;;6224411;22;20051;-92
2022/08/03 00:58:05;;;;;;;0.10;0.10;;;;;;;;;;6224994;22;20012;-92
2022/08/03 01:00:31;;;;;;;0.10;0.10;;;;;;;;;;6224529;22;20011;-92
2022/08/03 01:02:57;;;;;;;0.10;0.10;;;;;;;;;;6224327;22;20015;-92
2022/08/03 01:05:24;;;;;;;0.10;0.10;;;;;;;;;;6224695;22;20095;-92
2022/08/03 01:07:50;;;;;;;0.17;0.17;;;;;;;;;;6249796;22;20016;-92
2022/08/03 01:10:16;;;;;;;0.10;0.10;;;;;;;;;;6249492;22;20020;-93
2022/08/03 01:12:52;;;;;;;0.10;0.10;;;;;;;;;;6275021;22;20012;-92
2022/08/03 01:15:27;;;;;;;0.10;0.10;;;;;;;;;;6224615;22;20042;-92
2022/08/03 01:18:03;;;;;;;0.10;0.10;;;;;;;;;;6224221;22;20035;-92
2022/08/03 01:20:33;;;;;;;0.10;0.10;;;;;;;;;;6250572;22;20094;-92
2022/08/03 01:23:17;;;;;;;0.10;0.10;;;;;;;;;;6224619;22;20022;-92
2022/08/03 01:25:49;;;;;;;0.10;0.10;;;;;;;;;;6249976;22;20012;-91
2022/08/03 01:28:23;;;;;;;0.10;0.10;;;;;;;;;;6249488;22;20018;-92
2022/08/03 01:30:49;;;;;;;0.10;0.10;;;;;;;;;;6249989;22;20019;-92
2022/08/03 01:33:19;;;;;;;0.10;0.10;;;;;;;;;;6224682;22;20030;-92
2022/08/03 01:36:15;;;;;;;0.10;0.10;;;;;;;;;;6249582;22;20501;-91
2022/08/03 01:38:41;;;;;;;0.10;0.10;;;;;;;;;;6199085;22;20016;-94
2022/08/03 01:41:08;;;;;;;0.10;0.10;;;;;;;;;;6225206;22;20059;-91
2022/08/03 01:43:36;;;;;;;0.10;0.10;;;;;;;;;;6224709;22;20445;-94
2022/08/03 01:46:02;;;;;;;0.10;0.10;;;;;;;;;;6225224;22;20016;-94
2022/08/03 01:48:28;;;;;;;0.10;0.10;;;;;;;;;;6224506;22;20023;-94
2022/08/03 01:50:54;;;;;;;0.10;0.10;;;;;;;;;;6225279;22;20334;-94
2022/08/03 01:53:20;;;;;;;0.10;0.10;;;;;;;;;;6224493;22;20011;-92
2022/08/03 01:55:47;;;;;;;0.10;0.10;;;;;;;;;;6224645;22;20077;-93
2022/08/03 01:58:14;;;;;;;0.10;0.10;;;;;;;;;;6224038;22;20007;-93
2022/08/03 02:00:41;;;;;;;0.10;0.10;;;;;;;;;;6224741;22;20437;-92
2022/08/03 02:03:07;;;;;;;0.10;0.10;;;;;;;;;;6249492;22;20118;-93
2022/08/03 02:05:33;;;;;;;0.10;0.10;;;;;;;;;;6224771;22;20020;-94
2022/08/03 02:08:00;;;;;;;0.10;0.10;;;;;;;;;;6248189;22;20090;-93
2022/08/03 02:10:26;;;;;;;0.10;0.10;;;;;;;;;;6224037;22;20011;-91
2022/08/03 02:12:52;;;;;;;0.10;0.10;;;;;;;;;;6223944;22;20495;-93
2022/08/03 02:15:18;;;;;;;0.10;0.10;;;;;;;;;;6224307;22;20381;-91
2022/08/03 02:17:44;;;;;;;0.10;0.10;;;;;;;;;;6249590;22;20322;-93
2022/08/03 02:20:11;;;;;;;0.10;0.10;;;;;;;;;;6224209;22;20011;-93
2022/08/03 02:22:41;;;;;;;0.10;0.10;;;;;;;;;;6249453;22;20054;-92
2022/08/03 02:25:08;;;;;;;0.10;0.10;;;;;;;;;;6247959;22;20015;-93
2022/08/03 02:27:34;;;;;;;0.10;0.10;;;;;;;;;;6223406;22;20038;-92
2022/08/03 02:30:02;;;;;;;0.10;0.10;;;;;;;;;;6223461;22;20313;-92
2022/08/03 02:32:34;;;;;;;0.10;0.10;;;;;;;;;;6249039;22;20012;-94
2022/08/03 02:35:00;;;;;;;0.10;0.10;;;;;;;;;;6224624;22;20012;-94
2022/08/03 02:37:27;;;;;;;0.10;0.10;;;;;;;;;;6224564;22;20337;-93
2022/08/03 02:39:54;;;;;;;0.10;0.10;;;;;;;;;;6224068;22;20355;-95
2022/08/03 02:42:21;;;;;;;0.10;0.10;;;;;;;;;;6224523;22;20047;-95
2022/08/03 02:44:48;;;;;;;0.10;0.10;;;;;;;;;;6224302;22;20015;-95
2022/08/03 02:47:14;;;;;;;0.10;0.10;;;;;;;;;;6224596;22;20161;-94
2022/08/03 02:49:40;;;;;;;0.10;0.10;;;;;;;;;;6224639;22;20015;-93
2022/08/03 02:52:09;;;;;;;0.10;0.10;;;;;;;;;;6223421;22;20023;-93
2022/08/03 02:54:35;;;;;;;0.10;0.10;;;;;;;;;;6223496;22;20012;-93
2022/08/03 02:57:03;;;;;;;0.10;0.10;;;;;;;;;;6223995;22;20008;-95
2022/08/03 02:59:30;;;;;;;0.10;0.10;;;;;;;;;;6249648;22;20086;-96
2022/08/03 03:01:58;;;;;;;0.10;0.10;;;;;;;;;;6224100;22;20016;-95
2022/08/03 03:04:24;;;;;;;0.10;0.10;;;;;;;;;;6224150;22;20012;-94
2022/08/03 03:06:50;;;;;;;0.10;0.10;;;;;;;;;;6224343;22;20008;-95
2022/08/03 03:09:17;;;;;;;0.10;0.10;;;;;;;;;;6224231;22;20016;-94
2022/08/03 03:11:43;;;;;;;0.10;0.10;;;;;;;;;;6224434;22;20016;-96
2022/08/03 03:14:09;;;;;;;0.10;0.10;;;;;;;;;;6224290;22;20043;-96
2022/08/03 03:16:35;;;;;;;0.10;0.10;;;;;;;;;;6224283;22;20018;-95
2022/08/03 03:19:01;;;;;;;0.10;0.10;;;;;;;;;;6224562;22;20031;-96
2022/08/03 03:21:30;;;;;;;0.10;0.10;;;;;;;;;;6226135;22;20015;-96
2022/08/03 03:23:56;;;;;;;0.10;0.10;;;;;;;;;;6226099;22;20026;-94
2022/08/03 03:26:22;;;;;;;0.10;0.10;;;;;;;;;;6226117;22;20023;-94
2022/08/03 03:28:48;;;;;;;0.10;0.10;;;;;;;;;;6226007;22;20012;-94
2022/08/03 03:31:16;;;;;;;0.10;0.10;;;;;;;;;;6225407;22;20062;-93
2022/08/03 03:33:42;;;;;;;0.15;0.15;;;;;;;;;;6226490;22;20102;-94
2022/08/03 03:36:08;;;;;;;0.10;0.10;;;;;;;;;;6226106;22;20012;-95
2022/08/03 03:38:34;;;;;;;0.10;0.10;;;;;;;;;;6226141;22;20012;-95
2022/08/03 03:41:00;;;;;;;0.20;0.20;;;;;;;;;;6226051;22;20089;-93
2022/08/03 03:43:28;;;;;;;0.10;0.10;;;;;;;;;;6226155;22;20408;-94
2022/08/03 03:45:54;;;;;;;0.10;0.10;;;;;;;;;;6225472;22;20066;-93
2022/08/03 03:48:20;;;;;;;0.10;0.10;;;;;;;;;;6225966;22;20027;-93
2022/08/03 03:50:56;;;;;;;0.10;0.10;;;;;;;;;;6225429;22;20051;-94
2022/08/03 03:53:22;;;;;;;0.10;0.10;;;;;;;;;;6225687;22;20031;-96
2022/08/03 03:55:48;;;;;;;0.10;0.10;;;;;;;;;;6226421;22;20007;-94
2022/08/03 03:58:14;;;;;;;0.10;0.10;;;;;;;;;;6225991;22;20008;-95
2022/08/03 04:00:41;;;;;;;0.10;0.10;;;;;;;;;;6226688;22;20022;-93
2022/08/03 04:03:07;;;;;;;0.20;0.20;;;;;;;;;;6240571;22;20374;-92
2022/08/03 04:11:05;;;;;;;0.10;0.10;;;;;;;;;;6265420;22;20341;-95
2022/08/03 04:13:38;;;;;;;0.10;0.10;;;;;;;;;;6232189;22;20015;-92
2022/08/03 04:16:04;;;;;;;0.10;0.10;;;;;;;;;;6227517;22;20030;-92
2022/08/03 04:18:31;;;;;;;0.10;0.10;;;;;;;;;;6224850;22;20008;-93
2022/08/03 04:20:57;;;;;;;0.10;0.10;;;;;;;;;;6224943;22;20180;-92
2022/08/03 04:23:24;;;;;;;0.10;0.10;;;;;;;;;;6251128;22;20051;-93
2022/08/03 04:25:50;;;;;;;0.10;0.10;;;;;;;;;;6225762;22;20027;-92
2022/08/03 04:28:17;;;;;;;0.10;0.10;;;;;;;;;;6250789;22;20023;-93
2022/08/03 04:30:46;;;;;;;0.10;0.10;;;;;;;;;;6252170;22;20016;-92
2022/08/03 04:33:12;;;;;;;0.10;0.10;;;;;;;;;;6223435;22;20019;-93
2022/08/03 04:35:38;;;;;;;0.10;0.10;;;;;;;;;;6229876;22;20035;-93
2022/08/03 04:38:06;;;;;;;0.10;0.10;;;;;;;;;;6233767;22;20022;-92
2022/08/03 04:40:36;;;;;;;0.10;0.10;;;;;;;;;;6260683;22;20015;-92
2022/08/03 04:43:03;;;;;;;0.10;0.10;;;;;;;;;;6247416;22;20019;-93
2022/08/03 04:45:29;;;;;;;0.10;0.10;;;;;;;;;;6239739;22;20154;-92
2022/08/03 04:47:55;;;;;;;0.30;0.30;;;;;;;;;;6262496;22;20047;-92
2022/08/03 04:50:21;;;;;;;0.20;0.20;;;;;;;;;;6236162;22;20067;-93
2022/08/03 04:52:48;;;;;;;0.10;0.10;;;;;;;;;;6236563;22;20012;-94
2022/08/03 04:55:27;;;;;;;0.10;0.10;;;;;;;;;;6230505;22;20115;-93
2022/08/03 04:57:53;;;;;;;0.10;0.10;;;;;;;;;;6224265;22;20012;-94
2022/08/03 05:00:19;;;;;;;0.10;0.10;;;;;;;;;;6225590;22;20509;-92
2022/08/03 05:02:45;;;;;;;0.10;0.10;;;;;;;;;;6224369;22;20020;-94
2022/08/03 05:05:11;;;;;;;0.10;0.10;;;;;;;;;;6224745;22;20020;-94
2022/08/03 05:07:37;;;;;;;0.10;0.10;;;;;;;;;;6224129;22;20012;-92
2022/08/03 05:10:06;;;;;;;0.10;0.10;;;;;;;;;;6223999;22;20097;-91
2022/08/03 05:12:32;;;;;;;0.10;0.10;;;;;;;;;;6248915;22;20011;-92
2022/08/03 05:14:59;;;;;;;0.10;0.10;;;;;;;;;;6224438;22;20008;-92
2022/08/03 05:17:25;;;;;;;0.10;0.10;;;;;;;;;;6223988;22;20011;-92
2022/08/03 05:19:51;;;;;;;0.10;0.10;;;;;;;;;;6224434;22;20062;-92
2022/08/03 05:22:17;;;;;;;0.10;0.10;;;;;;;;;;6224492;22;20047;-92
2022/08/03 05:24:45;;;;;;;0.10;0.10;;;;;;;;;;6223923;22;20007;-91
2022/08/03 05:27:16;;;;;;;0.10;0.10;;;;;;;;;;6223898;22;20290;-91
2022/08/03 05:29:42;;;;;;;0.10;0.10;;;;;;;;;;6223610;22;20495;-91
2022/08/03 05:32:08;;;;;;;0.10;0.10;;;;;;;;;;6223667;22;20016;-92
2022/08/03 05:34:34;;;;;;;0.10;0.10;;;;;;;;;;6223246;22;20077;-92
2022/08/03 05:37:01;;;;;;;0.10;0.10;;;;;;;;;;6224018;22;20388;-92
2022/08/03 05:39:27;;;;;;;0.10;0.10;;;;;;;;;;6248725;22;20069;-92
2022/08/03 05:41:55;;;;;;;0.13;0.13;;;;;;;;;;6249185;22;20027;-92
2022/08/03 05:44:21;;;;;;;0.10;0.10;;;;;;;;;;6225691;22;20038;-92
2022/08/03 05:46:49;;;;;;;0.10;0.10;;;;;;;;;;6224955;22;20471;-93
2022/08/03 05:49:15;;;;;;;0.10;0.10;;;;;;;;;;6198499;22;20322;-91
2022/08/03 05:51:41;;;;;;;0.10;0.10;;;;;;;;;;6223285;22;20322;-91
2022/08/03 05:54:09;;;;;;;0.10;0.10;;;;;;;;;;6223131;22;20018;-93
2022/08/03 05:56:35;;;;;;;0.10;0.10;;;;;;;;;;6223724;22;20008;-92
2022/08/03 05:59:01;;;;;;;0.10;0.10;;;;;;;;;;6223990;22;20086;-92
2022/08/03 06:01:28;;;;;;;0.10;0.10;;;;;;;;;;6223536;22;20471;-90
2022/08/03 06:03:55;;;;;;;0.10;0.10;;;;;;;;;;6248354;22;20015;-92
2022/08/03 06:06:21;;;;;;;0.10;0.10;;;;;;;;;;6223065;22;20094;-92
2022/08/03 06:08:47;;;;;;;0.10;0.10;;;;;;;;;;6223278;22;20069;-93
2022/08/03 06:11:13;;;;;;;0.10;0.10;;;;;;;;;;6225095;22;20022;-94
2022/08/03 06:13:40;;;;;;;0.10;0.10;;;;;;;;;;6224270;22;20012;-93
2022/08/03 06:16:06;;;;;;;0.10;0.10;;;;;;;;;;6223628;22;20051;-93
2022/08/03 06:18:32;;;;;;;0.10;0.10;;;;;;;;;;6223387;22;20012;-91
2022/08/03 06:20:58;;;;;;;0.10;0.10;;;;;;;;;;6223709;22;20022;-95
2022/08/03 06:23:24;;;;;;;0.10;0.10;;;;;;;;;;6224088;22;20094;-92
2022/08/03 06:25:50;;;;;;;0.10;0.10;;;;;;;;;;6223531;22;20052;-90
2022/08/03 06:28:17;;;;;;;0.10;0.10;;;;;;;;;;6248054;22;20077;-89
2022/08/03 06:30:43;;;;;;;0.10;0.10;;;;;;;;;;6248107;22;20012;-89
2022/08/03 06:33:09;;;;;;;0.10;0.10;;;;;;;;;;6222649;22;20011;-90
2022/08/03 06:35:35;;;;;;;0.10;0.10;;;;;;;;;;6247686;22;20062;-91
2022/08/03 06:38:01;;;;;;;0.10;0.10;;;;;;;;;;6222532;22;20018;-90
2022/08/03 06:40:30;;;;;;;0.10;0.10;;;;;;;;;;6197049;22;20047;-90
2022/08/03 06:43:00;;;;;;;0.10;0.10;;;;;;;;;;6198489;22;20016;-90
2022/08/03 06:45:27;;;;;;;0.10;0.10;;;;;;;;;;6222980;22;20058;-90
2022/08/03 06:48:10;;;;;;;0.10;0.10;;;;;;;;;;6223135;22;20441;-88
2022/08/03 06:50:38;;;;;;;0.10;0.10;;;;;;;;;;6247971;22;20019;-87
2022/08/03 06:53:05;;;;;;;0.20;0.20;;;;;;;;;;6222495;22;20014;-88
2022/08/03 06:55:31;;;;;;;0.20;0.20;;;;;;;;;;6250097;22;20067;-87
2022/08/03 06:57:57;;;;;;;0.10;0.10;;;;;;;;;;6250094;22;20008;-87
2022/08/03 07:00:23;;;;;;;0.20;0.20;;;;;;;;;;6224829;22;20511;-87
2022/08/03 07:02:49;;;;;;;0.20;0.20;;;;;;;;;;6249781;22;20445;-87
2022/08/03 07:05:15;;;;;;;0.10;0.10;;;;;;;;;;6199575;22;20015;-87
2022/08/03 07:07:41;;;;;;;0.20;0.20;;;;;;;;;;6224648;22;20012;-88
2022/08/03 07:10:07;;;;;;;0.10;0.10;;;;;;;;;;6224271;22;20037;-89
2022/08/03 07:12:34;;;;;;;0.10;0.10;;;;;;;;;;6199644;22;20011;-89
2022/08/03 07:15:00;;;;;;;0.10;0.10;;;;;;;;;;6199259;22;20050;-92
2022/08/03 07:17:26;;;;;;;0.10;0.10;;;;;;;;;;6199881;22;20181;-89
2022/08/03 07:19:52;;;;;;;0.20;0.20;;;;;;;;;;6199460;22;20008;-89
2022/08/03 07:22:18;;;;;;;0.20;0.20;;;;;;;;;;6249652;22;20413;-89
2022/08/03 07:24:44;;;;;;;0.15;0.15;;;;;;;;;;6250192;22;20078;-90
2022/08/03 07:27:10;;;;;;;0.20;0.20;;;;;;;;;;6224356;22;20007;-90
2022/08/03 07:29:36;;;;;;;0.10;0.10;;;;;;;;;;6224453;22;20023;-89
2022/08/03 07:32:03;;;;;;;0.20;0.20;;;;;;;;;;6223985;22;20130;-89
2022/08/03 07:34:29;;;;;;;0.20;0.20;;;;;;;;;;6224608;22;20012;-89
2022/08/03 07:36:57;;;;;;;0.15;0.15;;;;;;;;;;6249603;22;20014;-91
2022/08/03 07:39:23;;;;;;;0.20;0.20;;;;;;;;;;6249170;22;20008;-91
2022/08/03 07:41:50;;;;;;;0.20;0.20;;;;;;;;;;6249835;22;20015;-89
2022/08/03 07:44:16;;;;;;;0.20;0.20;;;;;;;;;;6249064;22;20016;-90
2022/08/03 07:46:42;;;;;;;0.20;0.20;;;;;;;;;;6249903;22;20015;-90
2022/08/03 07:49:08;;;;;;;0.30;0.30;;;;;;;;;;6224214;22;20373;-91
2022/08/03 07:51:34;;;;;;;0.20;0.20;;;;;;;;;;6224221;22;20098;-91
2022/08/03 07:54:00;;;;;;;0.20;0.20;;;;;;;;;;6224287;22;20011;-91
2022/08/03 07:56:27;;;;;;;0.20;0.20;;;;;;;;;;6199476;22;20015;-91
2022/08/03 07:58:53;;;;;;;0.20;0.20;;;;;;;;;;6224434;22;20012;-91
2022/08/03 08:01:19;;;;;;;0.20;0.20;;;;;;;;;;6224022;22;20089;-91
2022/08/03 08:03:45;;;;;;;0.20;0.20;;;;;;;;;;6225398;22;20094;-89
2022/08/03 08:06:11;;;;;;;0.20;0.20;;;;;;;;;;6224386;22;20023;-89
2022/08/03 08:08:38;;;;;;;0.20;0.20;;;;;;;;;;6249591;22;20011;-90
2022/08/03 08:11:04;;;;;;;0.20;0.20;;;;;;;;;;6223872;22;20039;-89
2022/08/03 08:13:30;;;;;;;0.20;0.20;;;;;;;;;;6199107;22;20018;-92
2022/08/03 08:15:56;;;;;;;0.20;0.20;;;;;;;;;;6224142;22;20035;-89
2022/08/03 08:18:22;;;;;;;0.20;0.20;;;;;;;;;;6223844;22;20070;-89
2022/08/03 08:20:48;;;;;;;0.20;0.20;;;;;;;;;;6224394;22;20011;-88
2022/08/03 08:23:14;;;;;;;0.20;0.20;;;;;;;;;;6224021;22;20392;-89
2022/08/03 08:25:40;;;;;;;0.20;0.20;;;;;;;;;;6224081;22;20019;-89
2022/08/03 08:28:06;;;;;;;0.20;0.20;;;;;;;;;;6199034;22;20338;-88
2022/08/03 08:30:32;;;;;;;0.20;0.20;;;;;;;;;;6224048;22;20012;-88
2022/08/03 08:32:58;;;;;;;0.20;0.20;;;;;;;;;;6224097;22;20062;-88
2022/08/03 08:35:24;;;;;;;0.20;0.20;;;;;;;;;;6249199;22;20012;-90
2022/08/03 08:37:51;;;;;;;0.20;0.20;;;;;;;;;;6224013;22;20062;-89
2022/08/03 08:40:17;;;;;;;0.20;0.20;;;;;;;;;;6235349;22;20465;-88
2022/08/03 08:42:43;;;;;;;0.20;0.20;;;;;;;;;;6254232;22;20026;-88
2022/08/03 08:45:10;;;;;;;0.20;0.20;;;;;;;;;;6229388;22;20011;-87
2022/08/03 08:47:40;;;;;;;0.20;0.20;;;;;;;;;;6279489;22;20448;-88
2022/08/03 08:50:07;;;;;;;0.20;0.20;;;;;;;;;;6228646;22;20026;-88
2022/08/03 08:52:33;;;;;;;0.20;0.20;;;;;;;;;;6254627;22;20023;-89
2022/08/03 08:55:00;;;;;;;0.30;0.30;;;;;;;;;;6305461;22;20057;-88
2022/08/03 08:57:30;;;;;;;0.20;0.20;;;;;;;;;;6254091;22;20022;-88
2022/08/03 08:59:56;;;;;;;0.20;0.20;;;;;;;;;;6254097;22;20322;-88
2022/08/03 09:02:25;;;;;;;0.20;0.20;;;;;;;;;;6254178;22;20341;-88
2022/08/03 09:04:51;;;;;;;0.20;0.20;;;;;;;;;;6228600;22;20433;-88
2022/08/03 09:07:17;;;;;;;0.20;0.20;;;;;;;;;;6228680;22;20017;-89
2022/08/03 09:09:43;;;;;;;0.20;0.20;;;;;;;;;;6279177;22;20011;-89
2022/08/03 09:12:09;;;;;;;0.20;0.20;;;;;;;;;;6253928;22;20436;-89
2022/08/03 09:14:35;;;;;;;0.20;0.20;;;;;;;;;;6228717;22;20018;-89
2022/08/03 09:17:02;;;;;;;0.20;0.20;;;;;;;;;;6253712;22;20011;-88
2022/08/03 09:19:28;;;;;;;0.20;0.20;;;;;;;;;;6253803;22;20007;-91
2022/08/03 09:22:08;;;;;;;0.20;0.20;;;;;;;;;;6228387;22;20065;-90
2022/08/03 09:24:37;;;;;;;0.20;0.20;;;;;;;;;;6278775;22;20086;-91
2022/08/03 09:27:06;;;;;;;0.20;0.20;;;;;;;;;;6227957;22;20014;-93
2022/08/03 09:29:32;;;;;;;0.20;0.20;;;;;;;;;;6278971;22;20101;-92
2022/08/03 09:32:00;;;;;;;0.20;0.20;;;;;;;;;;6228291;22;20019;-89
2022/08/03 09:34:27;;;;;;;0.20;0.20;;;;;;;;;;6253770;22;20108;-90
2022/08/03 09:36:53;;;;;;;0.20;0.20;;;;;;;;;;6254087;22;20007;-89
2022/08/03 09:39:23;;;;;;;0.20;0.20;;;;;;;;;;6228015;22;20069;-89
2022/08/03 09:42:03;;;;;;;0.20;0.20;;;;;;;;;;6228237;22;20023;-89
2022/08/03 09:44:36;;;;;;;0.20;0.20;;;;;;;;;;6228380;22;20064;-90
2022/08/03 09:47:02;;;;;;;0.20;0.20;;;;;;;;;;6254036;22;20335;-89
2022/08/03 09:49:28;;;;;;;0.20;0.20;;;;;;;;;;6227753;22;20464;-90
2022/08/03 09:51:54;;;;;;;0.20;0.20;;;;;;;;;;6253755;22;20019;-89
2022/08/03 09:54:30;;;;;;;0.20;0.20;;;;;;;;;;6228124;22;20018;-89
2022/08/03 09:56:56;;;;;;;0.20;0.20;;;;;;;;;;6278827;22;20526;-89
2022/08/03 09:59:23;;;;;;;0.20;0.20;;;;;;;;;;6227954;22;20012;-90
2022/08/03 10:01:49;;;;;;;0.20;0.20;;;;;;;;;;6253588;22;20060;-89
2022/08/03 10:04:18;;;;;;;0.63;0.63;;;;;;;;;;6228292;22;20062;-90
2022/08/03 10:06:44;;;;;;;0.20;0.20;;;;;;;;;;6231973;22;20022;-90
2022/08/03 10:09:14;;;;;;;0.20;0.20;;;;;;;;;;6253262;22;20015;-89
2022/08/03 10:11:40;;;;;;;0.20;0.20;;;;;;;;;;6228349;22;20061;-88
2022/08/03 10:14:07;;;;;;;0.20;0.20;;;;;;;;;;6253560;22;20411;-89
2022/08/03 10:16:39;;;;;;;0.20;0.20;;;;;;;;;;6251258;22;20011;-91
2022/08/03 10:19:06;;;;;;;0.20;0.20;;;;;;;;;;6228146;22;20086;-92
2022/08/03 10:21:33;;;;;;;0.20;0.20;;;;;;;;;;6228216;22;20310;-91
2022/08/03 10:24:00;;;;;;;0.20;0.20;;;;;;;;;;6227920;22;20348;-93
2022/08/03 10:26:26;;;;;;;0.20;0.20;;;;;;;;;;6228067;22;20085;-92
2022/08/03 10:28:53;;;;;;;0.20;0.20;;;;;;;;;;6227562;22;20043;-92
2022/08/03 10:31:20;;;;;;;0.20;0.20;;;;;;;;;;6227581;22;20011;-92
2022/08/03 10:33:47;;;;;;;0.20;0.20;;;;;;;;;;6252682;22;20011;-93
2022/08/03 10:36:13;;;;;;;0.20;0.20;;;;;;;;;;6227782;22;20030;-94
2022/08/03 10:38:51;;;;;;;0.20;0.20;;;;;;;;;;6228516;22;20054;-94
2022/08/03 10:41:18;;;;;;;0.20;0.20;;;;;;;;;;6222328;22;20024;-93
2022/08/03 10:44:05;;;;;;;0.20;0.20;;;;;;;;;;6223288;22;20026;-92
2022/08/03 10:46:31;;;;;;;0.20;0.20;;;;;;;;;;6222991;22;20186;-92
2022/08/03 10:48:57;;;;;;;0.22;0.22;;;;;;;;;;6222699;22;20115;-92
2022/08/03 10:51:23;;;;;;;0.20;0.20;;;;;;;;;;6222128;22;20139;-93
2022/08/03 10:53:50;;;;;;;0.20;0.20;;;;;;;;;;6222768;22;20043;-93
2022/08/03 10:59:19;;;;;;;0.20;0.20;;;;;;;;;;6247673;22;20468;-91
2022/08/03 11:01:53;;;;;;;0.20;0.20;;;;;;;;;;6247777;22;20019;-92
2022/08/03 11:04:19;;;;;;;0.20;0.20;;;;;;;;;;6222492;22;20022;-91
2022/08/03 11:06:46;;;;;;;0.22;0.22;;;;;;;;;;6248014;22;20020;-91
2022/08/03 11:09:15;;;;;;;0.20;0.20;;;;;;;;;;6222356;22;20106;-92
2022/08/03 11:11:42;;;;;;;0.20;0.20;;;;;;;;;;6222505;22;20015;-92
2022/08/03 11:14:08;;;;;;;0.20;0.20;;;;;;;;;;6223265;22;20012;-92
2022/08/03 11:16:38;;;;;;;0.20;0.20;;;;;;;;;;6252137;22;20015;-94
2022/08/03 11:19:05;;;;;;;0.20;0.20;;;;;;;;;;6225383;22;20007;-94
2022/08/03 11:21:52;;;;;;;0.20;0.20;;;;;;;;;;6225166;22;20018;-94
2022/08/03 11:24:39;;;;;;;0.20;0.20;;;;;;;;;;6249228;22;20023;-93
2022/08/03 11:27:14;;;;;;;0.30;0.30;;;;;;;;;;6274793;22;20054;-93
2022/08/03 11:29:59;;;;;;;0.20;0.20;;;;;;;;;;6248006;22;20090;-94
2022/08/03 11:32:44;;;;;;;0.20;0.20;;;;;;;;;;6248732;22;20058;-93
2022/08/03 11:35:11;;;;;;;0.20;0.20;;;;;;;;;;6249406;22;20501;-92
2022/08/03 11:37:57;;;;;;;0.20;0.20;;;;;;;;;;6250479;22;20015;-93
2022/08/03 11:40:43;;;;;;;0.40;0.40;;;;;;;;;;6208197;22;20039;-93
2022/08/03 11:43:24;;;;;;;0.20;0.20;;;;;;;;;;6226328;22;20016;-93
2022/08/03 11:46:02;;;;;;;0.20;0.20;;;;;;;;;;6225264;22;20027;-93
2022/08/03 11:48:36;;;;;;;0.20;0.20;;;;;;;;;;6225226;22;20409;-93
2022/08/03 11:51:03;;;;;;;0.20;0.20;;;;;;;;;;6200342;22;20026;-94
2022/08/03 11:53:29;;;;;;;0.20;0.20;;;;;;;;;;6201346;22;20012;-95
2022/08/03 11:55:55;;;;;;;0.20;0.20;;;;;;;;;;6200864;22;20015;-95
2022/08/03 11:58:22;;;;;;;0.20;0.20;;;;;;;;;;6200244;22;20012;-95
2022/08/03 12:00:48;;;;;;;0.20;0.20;;;;;;;;;;6200518;22;20012;-94
2022/08/03 12:03:16;;;;;;;0.20;0.20;;;;;;;;;;6200483;22;20016;-94
2022/08/03 12:06:01;;;;;;;0.20;0.20;;;;;;;;;;6200946;22;20011;-94
2022/08/03 12:08:27;;;;;;;0.73;0.73;;;;;;;;;;6225047;22;20051;-95
2022/08/03 12:10:53;;;;;;;0.20;0.20;;;;;;;;;;6225145;22;20019;-93
2022/08/03 12:13:19;;;;;;;0.20;0.20;;;;;;;;;;6199297;22;20015;-93
2022/08/03 12:15:55;;;;;;;0.20;0.20;;;;;;;;;;6200629;22;20094;-94
2022/08/03 12:18:21;;;;;;;0.20;0.20;;;;;;;;;;6250069;22;20007;-91
2022/08/03 12:20:50;;;;;;;0.20;0.20;;;;;;;;;;6202388;22;20015;-92
2022/08/03 12:23:21;;;;;;;0.20;0.20;;;;;;;;;;6225362;22;20336;-93
2022/08/03 12:25:47;;;;;;;;;;;;;;;;;;6224513;22;20087;-92
2022/08/03 12:28:22;;;;;;;0.20;0.20;;;;;;;;;;6249376;22;19945;-90
2022/08/03 12:30:50;;;;;;;0.20;0.20;;;;;;;;;;6199048;22;20039;-90
2022/08/03 12:33:18;;;;;;;0.20;0.20;;;;;;;;;;6198812;22;20130;-91
2022/08/03 12:35:49;;;;;;;0.20;0.20;;;;;;;;;;6199549;22;20012;-94
2022/08/03 12:38:19;;;;;;;0.20;0.20;;;;;;;;;;6221945;22;20012;-91
2022/08/03 12:40:46;;;;;;;0.17;0.17;;;;;;;;;;6213311;22;20027;-90
2022/08/03 12:43:13;;;;;;;0.20;0.20;;;;;;;;;;6223729;22;20019;-92
2022/08/03 12:45:39;;;;;;;0.20;0.20;;;;;;;;;;6248877;22;20016;-92
2022/08/03 12:48:07;;;;;;;0.20;0.20;;;;;;;;;;6222919;22;20011;-92
2022/08/03 12:50:35;;;;;;;0.20;0.20;;;;;;;;;;6222670;22;20026;-92
2022/08/03 12:53:03;;;;;;;1.88;1.05;;;;;;;;;;6222646;22;20011;-92
2022/08/03 12:55:35;;;;;;;0.20;0.20;;;;;;;;;;6222772;22;20012;-92
2022/08/03 12:58:01;;;;;;;0.15;0.15;;;;;;;;;;6222995;22;20129;-92
2022/08/03 13:00:29;;;;;;;0.20;0.20;;;;;;;;;;6223257;22;20062;-93
2022/08/03 13:03:13;;;;;;;0.20;0.20;;;;;;;;;;6223561;22;20318;-90
2022/08/03 13:05:43;;;;;;;0.20;0.20;;;;;;;;;;6223400;22;20086;-91
2022/08/03 13:08:18;;;;;;;0.20;0.20;;;;;;;;;;6223156;22;20111;-91
2022/08/03 13:10:44;;;;;;;0.20;0.20;;;;;;;;;;6223373;22;20405;-91
2022/08/03 13:13:10;;;;;;;0.20;0.20;;;;;;;;;;6248793;22;20095;-91
2022/08/03 13:15:37;;;;;;;0.20;0.20;;;;;;;;;;6223192;22;20043;-91
2022/08/03 13:18:03;;;;;;;0.20;0.20;;;;;;;;;;6222904;22;20011;-91
2022/08/03 13:20:29;;;;;;;0.20;0.20;;;;;;;;;;6249589;22;20012;-91
2022/08/03 13:22:55;;;;;;;0.20;0.20;;;;;;;;;;6223780;22;20016;-91
2022/08/03 13:25:21;;;;;;;0.20;0.20;;;;;;;;;;6223535;22;20090;-91
2022/08/03 13:27:47;;;;;;;0.20;0.20;;;;;;;;;;6222796;22;20015;-91
2022/08/03 13:30:13;;;;;;;0.20;0.20;;;;;;;;;;6224644;22;20016;-91
2022/08/03 13:32:39;;;;;;;0.20;0.20;;;;;;;;;;6224852;22;20087;-91
2022/08/03 13:35:06;;;;;;;0.20;0.20;;;;;;;;;;6223887;22;20042;-90
2022/08/03 13:37:32;;;;;;;0.20;0.20;;;;;;;;;;6223655;22;20007;-90
2022/08/03 13:39:58;;;;;;;0.20;0.20;;;;;;;;;;6223115;22;20023;-90
2022/08/03 13:42:24;;;;;;;0.20;0.20;;;;;;;;;;6249127;22;20036;-90
2022/08/03 13:44:50;;;;;;;0.20;0.20;;;;;;;;;;6249364;22;20066;-90
2022/08/03 13:47:16;;;;;;;0.20;0.20;;;;;;;;;;6226486;22;20016;-90
2022/08/03 13:49:42;;;;;;;0.20;0.20;;;;;;;;;;6224277;22;20061;-91
2022/08/03 13:52:08;;;;;;;0.20;0.20;;;;;;;;;;6224770;22;20515;-88
2022/08/03 13:54:34;;;;;;;0.20;0.20;;;;;;;;;;6225090;22;20008;-90
2022/08/03 13:57:00;;;;;;;0.20;0.20;;;;;;;;;;6224399;22;20042;-89
2022/08/03 13:59:27;;;;;;;0.20;0.20;;;;;;;;;;6224037;22;20014;-89
2022/08/03 14:01:53;;;;;;;0.20;0.20;;;;;;;;;;6249843;22;20054;-90
2022/08/03 14:04:19;;;;;;;0.20;0.20;;;;;;;;;;6249275;22;20018;-90
2022/08/03 14:06:45;;;;;;;0.43;0.43;;;;;;;;;;6224277;22;20011;-89
2022/08/03 14:09:12;;;;;;;0.10;0.10;;;;;;;;;;6224588;22;20171;-89
2022/08/03 14:11:38;;;;;;;0.20;0.20;;;;;;;;;;6224054;22;20011;-91
2022/08/03 14:14:04;;;;;;;0.17;0.17;;;;;;;;;;6225487;22;20039;-91
2022/08/03 14:16:31;;;;;;;0.20;0.20;;;;;;;;;;6226082;22;20008;-91
2022/08/03 14:18:57;;;;;;;0.10;0.10;;;;;;;;;;6251829;22;20090;-91
2022/08/03 14:21:23;;;;;;;0.20;0.20;;;;;;;;;;6225020;22;20015;-91
2022/08/03 14:23:49;;;;;;;0.20;0.20;;;;;;;;;;6225228;22;20016;-90
2022/08/03 14:26:17;;;;;;;0.20;0.20;;;;;;;;;;6250256;22;20018;-90
2022/08/03 14:28:43;;;;;;;0.20;0.20;;;;;;;;;;6224213;22;20015;-90
2022/08/03 14:31:09;;;;;;;0.20;0.20;;;;;;;;;;6250141;22;20048;-91
2022/08/03 14:33:35;;;;;;;0.15;0.15;;;;;;;;;;6223613;22;20455;-90
2022/08/03 14:36:01;;;;;;;0.20;0.20;;;;;;;;;;6248808;22;20440;-91
2022/08/03 14:38:27;;;;;;;0.20;0.20;;;;;;;;;;6223332;22;20024;-90
2022/08/03 14:40:53;;;;;;;0.10;0.10;;;;;;;;;;6222576;22;20374;-91
2022/08/03 14:43:20;;;;;;;0.20;0.20;;;;;;;;;;6247956;22;20380;-90
2022/08/03 14:45:46;;;;;;;0.20;0.20;;;;;;;;;;6222541;22;20476;-89
2022/08/03 14:48:12;;;;;;;0.17;0.17;;;;;;;;;;6222142;22;20094;-89
2022/08/03 14:50:38;;;;;;;0.13;0.13;;;;;;;;;;6222457;22;20035;-91
2022/08/03 14:53:04;;;;;;;0.20;0.20;;;;;;;;;;6247811;22;20138;-89
2022/08/03 14:55:31;;;;;;;0.20;0.20;;;;;;;;;;6248411;22;20047;-90